Time;durP1;ratioP1;P1;durP2;ratioP2;P2;SDS_P1;SDS_P2;PMS_P1;PMS_P2;Temp;Humidity;BMP_temperature;BMP_pressure;BME280_temperature;BME280_humidity;BME280_pressure;Samples;Min_cycle;Max_cycle;Signal;HPM_P1;HPM_P2
2023/10/25 00:01:27;;;;;;;2.78;1.35;;;10.00;99.90;;;;;;5064921;28;20040;-77
2023/10/25 00:03:52;;;;;;;3.25;1.73;;;10.00;99.90;;;;;;5045710;28;20044;-77
2023/10/25 00:06:18;;;;;;;2.35;1.20;;;10.00;99.90;;;;;;5047913;28;20089;-77
2023/10/25 00:08:44;;;;;;;3.63;1.40;;;10.00;99.90;;;;;;5060631;28;20464;-77
2023/10/25 00:11:10;;;;;;;3.35;1.08;;;10.00;99.90;;;;;;5061783;28;20033;-77
2023/10/25 00:13:36;;;;;;;2.78;0.93;;;9.90;99.90;;;;;;5093535;28;20076;-77
2023/10/25 00:16:03;;;;;;;4.70;1.20;;;9.90;99.90;;;;;;5048131;28;20399;-77
2023/10/25 00:18:29;;;;;;;4.25;1.10;;;10.00;99.90;;;;;;5047633;28;20123;-77
2023/10/25 00:20:55;;;;;;;1.83;1.05;;;10.00;99.90;;;;;;5062399;28;20131;-77
2023/10/25 00:23:21;;;;;;;3.28;1.05;;;9.90;99.90;;;;;;5078827;28;20119;-77
2023/10/25 00:25:49;;;;;;;1.85;1.05;;;9.90;99.90;;;;;;5046530;28;20390;-77
2023/10/25 00:28:14;;;;;;;2.00;0.93;;;9.90;99.90;;;;;;5061450;28;20048;-77
2023/10/25 00:30:40;;;;;;;8.27;1.10;;;9.90;99.90;;;;;;5049221;28;20037;-77
2023/10/25 00:33:06;;;;;;;2.05;0.80;;;9.90;99.90;;;;;;5068867;28;20025;-77
2023/10/25 00:35:31;;;;;;;4.60;1.50;;;9.90;99.90;;;;;;5053401;28;20035;-77
2023/10/25 00:37:57;;;;;;;2.00;1.10;;;9.90;99.90;;;;;;5067860;28;20138;-77
2023/10/25 00:40:23;;;;;;;3.30;1.00;;;9.90;99.90;;;;;;5071334;28;20320;-77
2023/10/25 00:42:49;;;;;;;2.42;1.00;;;9.80;99.90;;;;;;5061690;28;20513;-77
2023/10/25 00:45:15;;;;;;;2.30;1.02;;;9.90;99.90;;;;;;5061494;28;20045;-77
2023/10/25 00:47:41;;;;;;;1.52;0.73;;;9.80;99.90;;;;;;5045221;28;20049;-77
2023/10/25 00:50:09;;;;;;;1.67;1.05;;;9.80;99.90;;;;;;5060706;28;20044;-77
2023/10/25 00:52:36;;;;;;;3.67;1.08;;;9.80;99.90;;;;;;5048200;28;20202;-77
2023/10/25 00:55:03;;;;;;;3.38;1.30;;;9.80;99.90;;;;;;5062379;28;20040;-77
2023/10/25 00:57:29;;;;;;;2.65;1.02;;;9.80;99.90;;;;;;5062280;28;20275;-77
2023/10/25 00:59:55;;;;;;;2.97;1.38;;;9.80;99.90;;;;;;5091562;28;20047;-77
2023/10/25 01:02:20;;;;;;;1.55;0.90;;;9.80;99.90;;;;;;5047658;28;20020;-77
2023/10/25 01:04:46;;;;;;;1.42;0.82;;;9.80;99.90;;;;;;5060925;28;20137;-77
2023/10/25 01:07:12;;;;;;;3.08;1.33;;;9.80;99.90;;;;;;5043758;28;20520;-77
2023/10/25 01:09:37;;;;;;;2.13;1.45;;;9.80;99.90;;;;;;5061729;28;20044;-77
2023/10/25 01:12:04;;;;;;;1.50;0.70;;;9.80;99.90;;;;;;5045643;28;20048;-77
2023/10/25 01:14:33;;;;;;;2.88;1.10;;;9.80;99.90;;;;;;5043926;28;20037;-77
2023/10/25 01:16:59;;;;;;;2.13;1.42;;;9.80;99.90;;;;;;5046094;28;20129;-77
2023/10/25 01:19:24;;;;;;;1.77;1.05;;;9.70;99.90;;;;;;5061190;28;20083;-77
2023/10/25 01:21:50;;;;;;;4.97;1.52;;;9.70;99.90;;;;;;5059233;28;20048;-77
2023/10/25 01:24:16;;;;;;;3.83;1.23;;;9.70;99.90;;;;;;5060901;28;20048;-77
2023/10/25 01:26:42;;;;;;;2.75;1.17;;;9.70;99.90;;;;;;5044784;28;20544;-77
2023/10/25 01:29:08;;;;;;;2.05;0.90;;;9.70;99.90;;;;;;5042528;28;20120;-77
2023/10/25 01:31:33;;;;;;;1.38;0.73;;;9.70;99.90;;;;;;5046333;28;20032;-77
2023/10/25 01:33:59;;;;;;;2.75;0.93;;;9.70;99.90;;;;;;5075213;28;20036;-77
2023/10/25 01:36:24;;;;;;;2.65;0.98;;;9.70;99.90;;;;;;5067721;28;20114;-77
2023/10/25 01:38:50;;;;;;;2.92;1.13;;;9.70;99.90;;;;;;5058075;28;20119;-77
2023/10/25 01:41:16;;;;;;;2.78;1.40;;;9.70;99.90;;;;;;5044974;28;20040;-77
2023/10/25 01:43:45;;;;;;;2.10;0.98;;;9.70;99.90;;;;;;5060643;28;20497;-76
2023/10/25 01:46:10;;;;;;;1.55;0.68;;;9.70;99.90;;;;;;5059872;28;20051;-77
2023/10/25 01:48:37;;;;;;;1.63;0.80;;;9.70;99.90;;;;;;5043913;28;20025;-76
2023/10/25 01:51:06;;;;;;;1.38;0.70;;;9.70;99.90;;;;;;5043109;28;20395;-77
2023/10/25 01:53:33;;;;;;;2.58;1.05;;;9.60;99.90;;;;;;5044874;28;20036;-77
2023/10/25 01:55:59;;;;;;;1.65;1.10;;;9.70;99.90;;;;;;5059115;28;20509;-77
2023/10/25 01:58:24;;;;;;;4.18;1.33;;;9.60;99.90;;;;;;5044792;28;20041;-77
2023/10/25 02:00:50;;;;;;;2.95;1.58;;;9.60;99.90;;;;;;5041842;28;20131;-77
2023/10/25 02:03:16;;;;;;;3.33;0.77;;;9.60;99.90;;;;;;5057178;28;20043;-77
2023/10/25 02:05:41;;;;;;;2.60;0.98;;;9.60;99.90;;;;;;5044385;28;20055;-77
2023/10/25 02:08:07;;;;;;;1.55;1.02;;;9.50;99.90;;;;;;5059432;28;20068;-77
2023/10/25 02:10:33;;;;;;;2.55;1.10;;;9.60;99.90;;;;;;5059327;28;20044;-77
2023/10/25 02:12:59;;;;;;;2.78;1.33;;;9.60;99.90;;;;;;5043214;28;20497;-77
2023/10/25 02:15:25;;;;;;;2.13;1.13;;;9.60;99.90;;;;;;5059579;28;20033;-77
2023/10/25 02:17:51;;;;;;;4.97;1.40;;;9.50;99.90;;;;;;5044639;28;20041;-77
2023/10/25 02:20:16;;;;;;;1.92;1.23;;;9.60;99.90;;;;;;5060516;28;20052;-77
2023/10/25 02:22:42;;;;;;;4.80;1.65;;;9.60;99.90;;;;;;5060121;28;20549;-77
2023/10/25 02:25:07;;;;;;;2.92;1.52;;;9.50;99.90;;;;;;5074826;28;20032;-77
2023/10/25 02:27:33;;;;;;;2.58;1.08;;;9.50;99.90;;;;;;5044930;28;20047;-77
2023/10/25 02:29:58;;;;;;;4.35;1.33;;;9.50;99.90;;;;;;5043532;28;20135;-77
2023/10/25 02:32:24;;;;;;;5.20;2.03;;;9.50;99.90;;;;;;5061608;28;20555;-77
2023/10/25 02:34:50;;;;;;;2.45;1.17;;;9.50;99.90;;;;;;5013871;28;20463;-77
2023/10/25 02:37:15;;;;;;;2.78;1.10;;;9.50;99.90;;;;;;5058669;28;20043;-77
2023/10/25 02:39:42;;;;;;;3.53;1.52;;;9.50;99.90;;;;;;5052523;28;20471;-77
2023/10/25 02:42:08;;;;;;;4.05;1.42;;;9.50;99.90;;;;;;5046404;28;20544;-77
2023/10/25 02:44:34;;;;;;;1.42;0.82;;;9.40;99.90;;;;;;5057394;28;20036;-77
2023/10/25 02:46:59;;;;;;;2.42;1.42;;;9.50;99.90;;;;;;5075718;28;20041;-77
2023/10/25 02:49:25;;;;;;;3.30;1.20;;;9.50;99.90;;;;;;5061184;28;20058;-77
2023/10/25 02:51:51;;;;;;;2.95;1.23;;;9.40;99.90;;;;;;5059621;28;20366;-77
2023/10/25 02:54:17;;;;;;;2.47;1.27;;;9.40;99.90;;;;;;5057809;28;20040;-77
2023/10/25 02:56:43;;;;;;;3.83;1.52;;;9.40;99.90;;;;;;5060938;28;20044;-77
2023/10/25 02:59:08;;;;;;;2.15;1.08;;;9.40;99.90;;;;;;5041709;28;20036;-78
2023/10/25 03:01:34;;;;;;;2.92;1.20;;;9.40;99.90;;;;;;5061183;28;20119;-77
2023/10/25 03:03:59;;;;;;;2.85;1.08;;;9.40;99.90;;;;;;5059744;28;20445;-77
2023/10/25 03:06:25;;;;;;;2.85;1.58;;;9.40;99.90;;;;;;5076376;28;20051;-77
2023/10/25 03:08:52;;;;;;;5.38;1.55;;;9.40;99.90;;;;;;5053038;28;20244;-77
2023/10/25 03:11:18;;;;;;;2.42;1.25;;;9.40;99.90;;;;;;5032970;28;20048;-77
2023/10/25 03:13:43;;;;;;;2.85;1.13;;;9.30;99.90;;;;;;5044918;28;20623;-77
2023/10/25 03:16:09;;;;;;;2.90;1.17;;;9.40;99.90;;;;;;5059154;28;20653;-77
2023/10/25 03:18:35;;;;;;;1.80;0.95;;;9.40;99.90;;;;;;5041629;28;20052;-77
2023/10/25 03:21:04;;;;;;;2.45;1.20;;;9.40;99.90;;;;;;5041917;28;20063;-77
2023/10/25 03:23:30;;;;;;;6.22;1.55;;;9.30;99.90;;;;;;5056919;28;20046;-77
2023/10/25 03:26:02;;;;;;;1.88;0.90;;;9.40;99.90;;;;;;5036473;28;20119;-77
2023/10/25 03:28:27;;;;;;;2.65;1.08;;;9.40;99.90;;;;;;5088337;28;20047;-77
2023/10/25 03:30:53;;;;;;;2.03;1.08;;;9.30;99.90;;;;;;5053776;28;20045;-77
2023/10/25 03:33:19;;;;;;;1.77;1.02;;;9.40;99.90;;;;;;5040105;28;20036;-77
2023/10/25 03:35:52;;;;;;;2.80;1.17;;;9.30;99.90;;;;;;5058879;28;20044;-77
2023/10/25 03:38:18;;;;;;;1.38;0.95;;;9.40;99.90;;;;;;5075211;28;20120;-77
2023/10/25 03:40:44;;;;;;;2.15;1.58;;;9.30;99.90;;;;;;5038820;28;20127;-76
2023/10/25 03:43:10;;;;;;;2.83;1.40;;;9.30;99.90;;;;;;5070626;28;20029;-77
2023/10/25 03:45:35;;;;;;;2.50;1.27;;;9.30;99.90;;;;;;5059055;28;20040;-77
2023/10/25 03:48:01;;;;;;;3.47;1.38;;;9.30;99.90;;;;;;5056498;28;20040;-77
2023/10/25 03:50:26;;;;;;;3.05;1.35;;;9.30;99.90;;;;;;5037693;28;20029;-77
2023/10/25 03:52:52;;;;;;;2.55;1.33;;;9.30;99.90;;;;;;5056557;28;20597;-76
2023/10/25 03:55:17;;;;;;;2.65;0.98;;;9.30;99.90;;;;;;5042711;28;20557;-77
2023/10/25 03:57:43;;;;;;;1.85;1.17;;;9.30;99.90;;;;;;5057822;28;20053;-77
2023/10/25 04:00:09;;;;;;;2.55;1.20;;;9.30;99.90;;;;;;5058529;28;20037;-77
2023/10/25 04:02:35;;;;;;;4.50;1.58;;;9.30;99.90;;;;;;5052652;28;20490;-77
2023/10/25 04:05:00;;;;;;;6.13;1.20;;;9.30;99.90;;;;;;5059238;28;20040;-77
2023/10/25 04:07:26;;;;;;;3.83;1.58;;;9.30;99.90;;;;;;5039003;28;20044;-77
2023/10/25 04:09:52;;;;;;;2.08;1.08;;;9.30;99.90;;;;;;5054699;28;20036;-77
2023/10/25 04:12:17;;;;;;;5.10;1.92;;;9.30;99.90;;;;;;5042661;28;20058;-77
2023/10/25 04:14:47;;;;;;;5.18;1.48;;;9.20;99.90;;;;;;5042789;28;20606;-77
2023/10/25 04:17:12;;;;;;;1.88;1.05;;;9.20;99.90;;;;;;5058078;28;20055;-77
2023/10/25 04:19:40;;;;;;;2.90;1.17;;;9.20;99.90;;;;;;5058123;28;20481;-77
2023/10/25 04:22:07;;;;;;;4.63;1.42;;;9.20;99.90;;;;;;5053059;28;20640;-77
2023/10/25 04:24:33;;;;;;;3.72;1.55;;;9.20;99.90;;;;;;5053911;28;20043;-77
2023/10/25 04:27:02;;;;;;;2.45;0.93;;;9.20;99.90;;;;;;5056368;28;20486;-77
2023/10/25 04:29:28;;;;;;;2.78;1.30;;;9.20;99.90;;;;;;5057492;28;20378;-77
2023/10/25 04:31:54;;;;;;;4.72;1.65;;;9.20;99.90;;;;;;5052738;28;20036;-77
2023/10/25 04:34:20;;;;;;;2.88;1.13;;;9.20;99.90;;;;;;5057643;28;20505;-77
2023/10/25 04:36:45;;;;;;;2.97;1.08;;;9.20;99.90;;;;;;5058879;28;20036;-77
2023/10/25 04:39:11;;;;;;;2.85;1.42;;;9.20;99.90;;;;;;5043223;28;20033;-77
2023/10/25 04:41:38;;;;;;;4.13;1.25;;;9.20;99.90;;;;;;5060809;28;20052;-77
2023/10/25 04:44:04;;;;;;;2.22;1.27;;;9.20;99.90;;;;;;5077265;28;20032;-77
2023/10/25 04:46:29;;;;;;;1.67;1.10;;;9.20;99.90;;;;;;5060168;28;20041;-77
2023/10/25 04:48:55;;;;;;;5.38;1.65;;;9.20;99.90;;;;;;5058985;28;20036;-77
2023/10/25 04:51:20;;;;;;;2.95;1.50;;;9.20;99.90;;;;;;5058725;28;20336;-77
2023/10/25 04:53:46;;;;;;;1.63;0.93;;;9.10;99.90;;;;;;5060178;28;20040;-77
2023/10/25 04:56:12;;;;;;;2.72;1.10;;;9.10;99.90;;;;;;5060429;28;20043;-77
2023/10/25 04:58:37;;;;;;;2.47;1.40;;;9.20;99.90;;;;;;5077011;28;20496;-77
2023/10/25 05:01:13;;;;;;;2.53;1.17;;;9.10;99.90;;;;;;5045207;28;20295;-77
2023/10/25 05:03:39;;;;;;;;;;;9.10;99.90;;;;;;5061473;28;20028;-77
2023/10/25 05:06:06;;;;;;;2.80;1.20;;;9.10;99.90;;;;;;5056433;28;19940;-77
2023/10/25 05:08:33;;;;;;;3.20;1.00;;;9.10;99.90;;;;;;5056612;28;20041;-77
2023/10/25 05:11:04;;;;;;;1.83;0.90;;;9.10;99.90;;;;;;5059194;28;20036;-77
2023/10/25 05:13:30;;;;;;;3.58;1.17;;;9.10;99.90;;;;;;5043488;28;20119;-77
2023/10/25 05:15:56;;;;;;;1.95;1.20;;;9.10;99.90;;;;;;5042397;28;21273;-77
2023/10/25 05:18:22;;;;;;;2.83;1.40;;;9.10;99.90;;;;;;5056454;28;20041;-77
2023/10/25 05:20:58;;;;;;;2.55;1.23;;;9.10;99.90;;;;;;5059732;28;20033;-77
2023/10/25 05:23:28;;;;;;;2.67;1.63;;;9.10;99.90;;;;;;5055083;28;20028;-77
2023/10/25 05:25:54;;;;;;;1.77;1.15;;;9.10;99.90;;;;;;5065261;28;20040;-77
2023/10/25 05:28:20;;;;;;;2.63;1.15;;;9.00;99.90;;;;;;5057949;28;20041;-77
2023/10/25 05:30:49;;;;;;;2.35;1.33;;;9.10;99.90;;;;;;5060371;28;20047;-77
2023/10/25 05:33:19;;;;;;;2.00;1.00;;;9.10;99.90;;;;;;5063320;28;20136;-77
2023/10/25 05:35:44;;;;;;;2.38;1.20;;;9.10;99.90;;;;;;5044200;28;20554;-77
2023/10/25 05:38:10;;;;;;;3.70;1.45;;;9.10;99.90;;;;;;5043281;28;20063;-81
2023/10/25 05:40:36;;;;;;;3.00;1.25;;;9.00;99.90;;;;;;5057109;28;20155;-77
2023/10/25 05:43:04;;;;;;;4.38;1.10;;;9.00;99.90;;;;;;5061124;28;20081;-77
2023/10/25 05:45:29;;;;;;;2.42;1.20;;;9.10;99.90;;;;;;5042064;28;20040;-77
2023/10/25 05:47:55;;;;;;;2.72;1.20;;;9.10;99.90;;;;;;5058200;28;20559;-77
2023/10/25 05:50:21;;;;;;;2.20;0.90;;;9.00;99.90;;;;;;5064829;28;20044;-78
2023/10/25 05:52:47;;;;;;;4.40;0.98;;;9.00;99.90;;;;;;5061000;28;20078;-77
2023/10/25 05:55:14;;;;;;;2.17;1.20;;;9.00;99.90;;;;;;5054436;28;20640;-77
2023/10/25 05:57:40;;;;;;;2.28;1.02;;;9.00;99.90;;;;;;5038027;28;20036;-77
2023/10/25 06:00:06;;;;;;;1.48;0.82;;;9.00;99.90;;;;;;5059029;28;20041;-77
2023/10/25 06:02:33;;;;;;;3.03;1.55;;;9.00;99.90;;;;;;5044832;28;20083;-77
2023/10/25 06:05:00;;;;;;;2.80;1.00;;;9.00;99.90;;;;;;5044530;28;20047;-76
2023/10/25 06:07:27;;;;;;;3.45;1.40;;;9.00;99.90;;;;;;5041220;28;20059;-77
2023/10/25 06:09:55;;;;;;;4.40;1.42;;;9.00;99.90;;;;;;5041369;28;20120;-82
2023/10/25 06:12:22;;;;;;;6.93;1.25;;;9.00;99.90;;;;;;5042977;28;20115;-83
2023/10/25 06:14:48;;;;;;;4.45;1.08;;;8.90;99.90;;;;;;5042649;28;20055;-85
2023/10/25 06:17:14;;;;;;;2.58;1.48;;;9.00;99.90;;;;;;5053882;28;20099;-78
2023/10/25 06:19:39;;;;;;;2.88;1.23;;;8.90;99.90;;;;;;5036564;28;20036;-78
2023/10/25 06:22:05;;;;;;;4.00;1.25;;;8.90;99.90;;;;;;5050842;28;20551;-78
2023/10/25 06:24:30;;;;;;;2.60;1.70;;;8.90;99.90;;;;;;5041479;28;20032;-78
2023/10/25 06:26:56;;;;;;;3.60;1.50;;;8.90;99.90;;;;;;5053467;28;20532;-79
2023/10/25 06:29:21;;;;;;;2.08;1.30;;;9.00;99.90;;;;;;5043731;28;20123;-78
2023/10/25 06:31:50;;;;;;;2.60;1.27;;;8.90;99.90;;;;;;5061593;28;20037;-78
2023/10/25 06:34:20;;;;;;;3.55;1.63;;;8.90;99.90;;;;;;5059591;28;20028;-78
2023/10/25 06:36:46;;;;;;;3.58;1.65;;;8.90;99.90;;;;;;5058892;28;20040;-78
2023/10/25 06:39:12;;;;;;;4.68;1.27;;;8.90;99.90;;;;;;5059190;28;20037;-78
2023/10/25 06:41:38;;;;;;;1.48;0.80;;;8.90;99.90;;;;;;5046516;28;20516;-78
2023/10/25 06:44:05;;;;;;;3.38;1.45;;;9.00;99.90;;;;;;5060421;28;20036;-78
2023/10/25 06:46:31;;;;;;;1.65;1.05;;;8.90;99.90;;;;;;5063060;28;20102;-79
2023/10/25 06:48:58;;;;;;;3.22;1.65;;;8.90;99.90;;;;;;5060828;28;20071;-78
2023/10/25 06:51:24;;;;;;;3.22;1.15;;;9.00;99.90;;;;;;5053609;28;20040;-78
2023/10/25 06:53:51;;;;;;;2.67;1.40;;;9.00;99.90;;;;;;5057017;28;20036;-78
2023/10/25 06:56:17;;;;;;;2.33;1.30;;;9.00;99.90;;;;;;5031676;28;20116;-78
2023/10/25 06:58:43;;;;;;;3.00;1.63;;;9.00;99.90;;;;;;5088222;28;20066;-79
2023/10/25 07:01:11;;;;;;;3.88;1.27;;;9.00;99.90;;;;;;5070319;28;20036;-78
2023/10/25 07:03:41;;;;;;;2.40;1.35;;;9.00;99.90;;;;;;5066848;28;20037;-79
2023/10/25 07:06:07;;;;;;;3.13;1.35;;;9.00;99.90;;;;;;5051232;28;20512;-79
2023/10/25 07:08:33;;;;;;;3.47;1.90;;;9.00;99.90;;;;;;5067445;28;20036;-78
2023/10/25 07:10:59;;;;;;;3.00;1.63;;;9.00;99.90;;;;;;5088581;28;20032;-78
2023/10/25 07:13:26;;;;;;;4.55;1.83;;;9.00;99.90;;;;;;5054711;28;20698;-78
2023/10/25 07:15:52;;;;;;;2.22;1.15;;;9.00;99.90;;;;;;5067598;28;20052;-78
2023/10/25 07:18:18;;;;;;;3.70;1.75;;;9.10;99.90;;;;;;5051285;28;20559;-79
2023/10/25 07:20:44;;;;;;;2.35;1.05;;;9.00;99.90;;;;;;5065060;28;20064;-78
2023/10/25 07:23:10;;;;;;;3.70;1.73;;;9.10;99.90;;;;;;5065179;28;20123;-78
2023/10/25 07:25:38;;;;;;;2.65;1.45;;;9.10;99.90;;;;;;5062302;28;20033;-78
2023/10/25 07:28:04;;;;;;;3.15;1.30;;;9.00;99.90;;;;;;5060483;28;20049;-78
2023/10/25 07:30:30;;;;;;;4.72;1.80;;;9.10;99.90;;;;;;5062937;28;20059;-78
2023/10/25 07:32:56;;;;;;;4.03;2.00;;;9.10;99.90;;;;;;5058174;28;20545;-79
2023/10/25 07:35:21;;;;;;;6.50;2.90;;;9.10;99.90;;;;;;5044418;28;20037;-78
2023/10/25 07:37:47;;;;;;;3.63;2.10;;;9.10;99.90;;;;;;5048380;28;20055;-78
2023/10/25 07:40:12;;;;;;;2.63;1.70;;;9.10;99.90;;;;;;5072142;28;20047;-79
2023/10/25 07:42:38;;;;;;;3.40;1.55;;;9.10;99.90;;;;;;5057999;28;20040;-78
2023/10/25 07:45:04;;;;;;;3.15;1.50;;;9.10;99.90;;;;;;5092569;28;20040;-79
2023/10/25 07:47:30;;;;;;;4.28;1.85;;;9.10;99.90;;;;;;5060121;28;20131;-78
2023/10/25 07:49:55;;;;;;;5.35;2.13;;;9.10;99.90;;;;;;5060004;28;20128;-79
2023/10/25 07:52:23;;;;;;;4.03;2.15;;;9.20;99.90;;;;;;5058770;28;20118;-79
2023/10/25 07:54:49;;;;;;;3.97;1.73;;;9.20;99.90;;;;;;5058087;28;20486;-78
2023/10/25 07:57:15;;;;;;;5.30;3.10;;;9.30;99.90;;;;;;5046144;28;20040;-78
2023/10/25 07:59:40;;;;;;;4.55;2.20;;;9.20;99.90;;;;;;5042178;28;20039;-78
2023/10/25 08:02:06;;;;;;;3.05;1.40;;;9.30;99.90;;;;;;5060000;28;20474;-78
2023/10/25 08:04:31;;;;;;;3.33;1.40;;;9.30;99.90;;;;;;5046187;28;20032;-79
2023/10/25 08:06:57;;;;;;;3.20;1.80;;;9.30;99.90;;;;;;5057101;28;20655;-78
2023/10/25 08:09:23;;;;;;;2.95;1.50;;;9.40;99.90;;;;;;5060266;28;20032;-79
2023/10/25 08:11:48;;;;;;;4.45;2.03;;;9.40;99.90;;;;;;5051062;28;20036;-79
2023/10/25 08:14:14;;;;;;;4.65;2.00;;;9.40;99.90;;;;;;5065684;28;20033;-78
2023/10/25 08:16:39;;;;;;;6.47;2.85;;;9.50;99.90;;;;;;5061144;28;20048;-79
2023/10/25 08:19:08;;;;;;;10.07;2.80;;;9.50;99.90;;;;;;5048791;28;20036;-79
2023/10/25 08:21:35;;;;;;;7.63;2.88;;;9.60;99.90;;;;;;5047735;28;20037;-79
2023/10/25 08:24:02;;;;;;;5.80;2.17;;;9.60;99.90;;;;;;5083400;28;20036;-78
2023/10/25 08:26:28;;;;;;;2.88;1.25;;;9.60;99.90;;;;;;5054049;28;20094;-78
2023/10/25 08:28:54;;;;;;;4.63;2.13;;;9.60;99.90;;;;;;5055589;28;20033;-78
2023/10/25 08:31:20;;;;;;;4.30;2.03;;;9.70;99.90;;;;;;5051870;28;20039;-78
2023/10/25 08:33:46;;;;;;;4.57;2.83;;;9.70;99.90;;;;;;5058882;28;20041;-78
2023/10/25 08:36:12;;;;;;;5.55;1.77;;;9.80;99.90;;;;;;5062913;28;20044;-78
2023/10/25 08:38:38;;;;;;;4.38;1.73;;;9.70;99.90;;;;;;5058216;28;20555;-78
2023/10/25 08:41:04;;;;;;;2.70;1.38;;;9.80;99.90;;;;;;5061620;28;20066;-78
2023/10/25 08:43:32;;;;;;;4.25;1.65;;;9.80;99.90;;;;;;5046440;28;20036;-78
2023/10/25 08:45:58;;;;;;;2.53;1.38;;;9.80;99.90;;;;;;5062326;28;20394;-78
2023/10/25 08:48:27;;;;;;;3.85;1.73;;;9.80;99.90;;;;;;5059069;28;20033;-78
2023/10/25 08:50:54;;;;;;;4.10;1.98;;;9.90;99.90;;;;;;5075080;28;20036;-78
2023/10/25 08:53:25;;;;;;;4.80;1.70;;;9.90;99.90;;;;;;5060937;28;20035;-78
2023/10/25 08:55:52;;;;;;;3.45;1.92;;;9.90;99.90;;;;;;5058534;28;20087;-78
2023/10/25 08:58:18;;;;;;;3.30;2.17;;;9.90;99.90;;;;;;5046262;28;20043;-78
2023/10/25 09:00:44;;;;;;;3.67;2.00;;;9.90;99.90;;;;;;5045081;28;20045;-78
2023/10/25 09:03:29;;;;;;;6.00;2.47;;;9.90;99.90;;;;;;5057989;28;20146;-79
2023/10/25 09:05:55;;;;;;;4.47;1.83;;;10.00;99.90;;;;;;5074737;28;20106;-77
2023/10/25 09:08:21;;;;;;;3.60;1.80;;;10.00;99.90;;;;;;5041433;28;20494;-78
2023/10/25 09:11:05;;;;;;;4.47;1.60;;;10.00;99.90;;;;;;5040137;28;20037;-78
2023/10/25 09:13:33;;;;;;;2.97;1.38;;;10.00;99.90;;;;;;5092375;28;20037;-78
2023/10/25 09:16:10;;;;;;;2.92;1.42;;;10.00;99.90;;;;;;5058150;28;20203;-78
2023/10/25 09:18:37;;;;;;;4.13;1.85;;;10.10;99.90;;;;;;5062081;28;20332;-78
2023/10/25 09:21:04;;;;;;;4.93;1.42;;;10.10;99.90;;;;;;5076301;28;20036;-79
2023/10/25 09:23:30;;;;;;;3.08;1.42;;;10.20;99.90;;;;;;5043657;28;20490;-78
2023/10/25 09:26:00;;;;;;;3.60;1.98;;;10.20;99.90;;;;;;5092009;28;20071;-77
2023/10/25 09:28:27;;;;;;;4.72;1.77;;;10.20;99.90;;;;;;5094423;28;20516;-77
2023/10/25 09:31:03;;;;;;;2.80;1.65;;;10.20;99.90;;;;;;5058920;28;21441;-77
2023/10/25 09:33:29;;;;;;;4.88;2.33;;;10.30;99.90;;;;;;5047920;28;20416;-77
2023/10/25 09:35:56;;;;;;;5.70;1.70;;;10.30;99.90;;;;;;5063709;28;20040;-78
2023/10/25 09:38:22;;;;;;;5.53;2.20;;;10.40;99.90;;;;;;5059084;28;20036;-77
2023/10/25 09:40:50;;;;;;;3.47;1.80;;;10.50;99.90;;;;;;5060395;28;20037;-80
2023/10/25 09:43:19;;;;;;;3.78;1.80;;;10.50;99.90;;;;;;5042739;28;20068;-78
2023/10/25 09:45:53;;;;;;;4.97;2.28;;;10.60;99.90;;;;;;5042855;28;20033;-78
2023/10/25 09:48:20;;;;;;;3.03;1.65;;;10.60;99.90;;;;;;5045914;28;20036;-78
2023/10/25 09:51:09;;;;;;;4.47;1.75;;;10.70;99.90;;;;;;5078600;28;20044;-77
2023/10/25 09:53:41;;;;;;;2.95;1.50;;;10.70;99.90;;;;;;5044905;28;20033;-78
2023/10/25 09:56:08;;;;;;;5.80;2.00;;;10.80;99.90;;;;;;5045491;28;20568;-78
2023/10/25 09:58:35;;;;;;;4.25;1.92;;;10.80;99.90;;;;;;5055690;28;20036;-77
2023/10/25 10:01:03;;;;;;;3.17;1.65;;;10.90;99.90;;;;;;5043741;28;20032;-77
2023/10/25 10:03:59;;;;;;;3.40;1.73;;;10.90;99.90;;;;;;5059706;28;20040;-77
2023/10/25 10:06:39;;;;;;;;;;;10.90;99.90;;;;;;5059322;28;20063;-77
2023/10/25 10:09:34;;;;;;;3.83;1.75;;;11.00;99.90;;;;;;5040414;28;21031;-78
2023/10/25 10:12:05;;;;;;;4.32;1.88;;;11.00;99.90;;;;;;5059339;28;20156;-78
2023/10/25 10:14:35;;;;;;;3.53;1.75;;;11.10;99.90;;;;;;5059735;28;20039;-78
2023/10/25 10:17:05;;;;;;;4.53;2.15;;;11.10;99.90;;;;;;5063174;28;20033;-77
2023/10/25 10:19:38;;;;;;;2.10;1.27;;;11.10;99.90;;;;;;5062729;28;20040;-78
2023/10/25 10:22:05;;;;;;;4.55;2.15;;;11.10;99.90;;;;;;5058976;28;20386;-78
2023/10/25 10:24:38;;;;;;;3.67;2.00;;;11.10;99.90;;;;;;5060361;28;20082;-78
2023/10/25 10:27:04;;;;;;;3.05;1.52;;;11.10;99.90;;;;;;5060169;28;20047;-78
2023/10/25 10:29:33;;;;;;;3.00;1.30;;;11.20;99.90;;;;;;5045843;28;20032;-78
2023/10/25 10:32:01;;;;;;;4.53;1.77;;;11.20;99.90;;;;;;5060795;28;20044;-77
2023/10/25 10:34:40;;;;;;;2.97;1.10;;;11.20;99.90;;;;;;5061251;28;20498;-77
2023/10/25 10:37:12;;;;;;;3.42;1.23;;;11.20;99.90;;;;;;5047821;28;20551;-78
2023/10/25 10:39:58;;;;;;;2.28;1.08;;;11.20;99.90;;;;;;5057307;28;20502;-79
2023/10/25 10:42:36;;;;;;;4.18;2.10;;;11.20;99.90;;;;;;5046503;28;20313;-79
2023/10/25 10:45:03;;;;;;;3.67;1.60;;;11.20;99.90;;;;;;5089576;28;20068;-78
2023/10/25 10:47:36;;;;;;;2.53;1.65;;;11.20;99.90;;;;;;5056878;28;20048;-78
2023/10/25 10:50:14;;;;;;;2.40;1.45;;;11.20;99.90;;;;;;5059441;28;20032;-78
2023/10/25 10:52:41;;;;;;;4.45;1.77;;;11.30;99.90;;;;;;5073255;28;20043;-78
2023/10/25 10:55:08;;;;;;;4.38;1.85;;;11.30;99.90;;;;;;5057618;28;20036;-78
2023/10/25 10:57:37;;;;;;;3.38;1.40;;;11.30;99.90;;;;;;5060806;28;20067;-78
2023/10/25 11:00:04;;;;;;;4.25;1.73;;;11.30;99.90;;;;;;5040318;28;20040;-77
2023/10/25 11:02:30;;;;;;;3.78;1.67;;;11.40;99.90;;;;;;5058455;28;20563;-77
2023/10/25 11:04:56;;;;;;;1.65;0.85;;;11.30;99.90;;;;;;5075246;28;20173;-76
2023/10/25 11:07:21;;;;;;;3.30;1.38;;;11.40;99.90;;;;;;5043177;28;20402;-77
2023/10/25 11:09:47;;;;;;;2.00;1.00;;;11.30;99.90;;;;;;5038319;28;20070;-76
2023/10/25 11:12:15;;;;;;;2.10;1.17;;;11.40;99.90;;;;;;5053955;28;20102;-76
2023/10/25 11:14:42;;;;;;;6.15;1.58;;;11.30;99.90;;;;;;5039487;28;20170;-76
2023/10/25 11:17:08;;;;;;;2.25;1.35;;;11.30;99.90;;;;;;5050465;28;20052;-77
2023/10/25 11:19:34;;;;;;;3.00;1.50;;;11.30;99.90;;;;;;5058913;28;20041;-77
2023/10/25 11:22:00;;;;;;;3.45;1.23;;;11.30;99.90;;;;;;5054159;28;20040;-77
2023/10/25 11:24:26;;;;;;;2.53;1.30;;;11.30;99.90;;;;;;5053962;28;20494;-77
2023/10/25 11:26:52;;;;;;;2.60;1.17;;;11.40;99.90;;;;;;5055541;28;20127;-77
2023/10/25 11:29:20;;;;;;;2.50;1.30;;;11.30;99.90;;;;;;5039722;28;20033;-77
2023/10/25 11:31:49;;;;;;;2.55;1.45;;;11.30;99.90;;;;;;5055006;28;20047;-77
2023/10/25 11:34:19;;;;;;;3.30;1.10;;;11.40;99.90;;;;;;5085705;28;20467;-78
2023/10/25 11:36:49;;;;;;;3.38;1.10;;;11.30;99.90;;;;;;5056267;28;20044;-77
2023/10/25 11:39:15;;;;;;;2.28;1.10;;;11.40;99.90;;;;;;5053399;28;20040;-78
2023/10/25 11:41:42;;;;;;;3.80;1.15;;;11.40;99.90;;;;;;5055226;28;20452;-78
2023/10/25 11:44:08;;;;;;;2.88;1.00;;;11.40;99.90;;;;;;5054620;28;20492;-77
2023/10/25 11:46:38;;;;;;;2.92;1.15;;;11.40;99.90;;;;;;5040737;28;20036;-77
2023/10/25 11:49:05;;;;;;;3.47;1.10;;;11.40;99.90;;;;;;5055796;28;20029;-77
2023/10/25 11:51:33;;;;;;;1.80;0.75;;;11.40;99.90;;;;;;5034107;28;20041;-77
2023/10/25 11:53:59;;;;;;;2.17;0.90;;;11.40;99.90;;;;;;5034226;28;20036;-77
2023/10/25 11:56:25;;;;;;;2.58;1.05;;;11.40;99.90;;;;;;5037513;28;20075;-77
2023/10/25 11:58:51;;;;;;;2.03;0.82;;;11.40;99.90;;;;;;5037152;28;20135;-78
2023/10/25 12:01:17;;;;;;;1.73;0.93;;;11.40;99.90;;;;;;5052220;28;20402;-77
2023/10/25 12:03:43;;;;;;;2.47;1.05;;;11.40;99.90;;;;;;5085542;28;20075;-77
2023/10/25 12:06:08;;;;;;;2.15;1.00;;;11.40;99.90;;;;;;5052211;28;20411;-76
2023/10/25 12:08:34;;;;;;;2.85;1.08;;;11.30;99.90;;;;;;5034672;28;20048;-77
2023/10/25 12:11:00;;;;;;;2.30;0.98;;;11.30;99.90;;;;;;5036396;28;20566;-77
2023/10/25 12:13:25;;;;;;;1.42;0.70;;;11.40;99.90;;;;;;5052029;28;20040;-77
2023/10/25 12:15:51;;;;;;;1.52;0.80;;;11.30;99.90;;;;;;5053185;28;21275;-77
2023/10/25 12:18:16;;;;;;;1.88;0.80;;;11.30;99.90;;;;;;5038021;28;20040;-77
2023/10/25 12:20:42;;;;;;;1.75;0.70;;;11.20;99.90;;;;;;5054124;28;20049;-77
2023/10/25 12:23:08;;;;;;;1.73;0.70;;;11.30;99.90;;;;;;5082352;28;20040;-78
2023/10/25 12:25:37;;;;;;;2.35;0.77;;;11.30;99.90;;;;;;5054133;28;21425;-78
2023/10/25 12:28:03;;;;;;;2.05;0.82;;;11.30;99.90;;;;;;5088169;28;20628;-78
2023/10/25 12:30:29;;;;;;;1.50;0.57;;;11.30;99.90;;;;;;5053835;28;20075;-78
2023/10/25 12:32:55;;;;;;;1.38;0.82;;;11.30;99.90;;;;;;5034722;28;20049;-78
2023/10/25 12:35:21;;;;;;;2.42;0.95;;;11.20;99.90;;;;;;5067446;28;20037;-78
2023/10/25 12:37:47;;;;;;;2.03;0.73;;;11.20;99.90;;;;;;5053402;28;20048;-78
2023/10/25 12:40:12;;;;;;;1.33;0.75;;;11.20;99.90;;;;;;5055456;28;20518;-78
2023/10/25 12:42:38;;;;;;;2.20;0.93;;;11.20;99.90;;;;;;5052853;28;20037;-78
2023/10/25 12:45:04;;;;;;;2.45;1.00;;;11.20;99.90;;;;;;5052125;28;20044;-77
2023/10/25 12:47:30;;;;;;;2.00;1.00;;;11.20;99.90;;;;;;5054479;28;20041;-77
2023/10/25 12:49:55;;;;;;;1.25;0.80;;;11.20;99.90;;;;;;5059093;28;20090;-77
2023/10/25 12:52:21;;;;;;;2.20;0.90;;;11.20;99.90;;;;;;5056365;28;20502;-77
2023/10/25 12:54:47;;;;;;;2.40;1.10;;;11.10;99.90;;;;;;5058411;28;20254;-77